Webcam

2021/01/22 14:50 EBBR 221450Z 26007KT 9999 FEW030 07/M00 Q0995 NOSIG

Webcam

--- Refresh now ---